createdAt,value
2018-07-26T00:03:45.936Z,22.25
2018-07-26T00:08:40.466Z,22.24
2018-07-26T00:13:35.069Z,22.17
2018-07-26T00:18:29.605Z,22.08
2018-07-26T00:23:24.161Z,21.99
2018-07-26T00:28:18.731Z,21.89
2018-07-26T00:33:13.326Z,21.76
2018-07-26T00:38:07.900Z,21.71
2018-07-26T00:43:02.408Z,21.66
2018-07-26T00:47:57.005Z,21.65
2018-07-26T00:52:51.581Z,21.55
2018-07-26T00:57:46.146Z,21.47
2018-07-26T01:02:40.681Z,21.42
2018-07-26T01:07:35.249Z,21.36
2018-07-26T01:12:29.838Z,21.32
2018-07-26T01:17:24.552Z,21.27
2018-07-26T01:22:19.186Z,21.29
2018-07-26T01:27:14.139Z,21.21
2018-07-26T01:32:08.712Z,21.16
2018-07-26T01:37:03.280Z,21.10
2018-07-26T01:41:57.893Z,21.08
2018-07-26T01:46:52.496Z,21.05
2018-07-26T01:51:47.128Z,20.99
2018-07-26T01:56:41.686Z,20.90
2018-07-26T02:01:36.271Z,20.89
2018-07-26T02:06:30.789Z,20.84
2018-07-26T02:11:25.424Z,20.77
2018-07-26T02:16:20.072Z,20.75
2018-07-26T02:21:14.696Z,20.68
2018-07-26T02:26:09.503Z,20.58
2018-07-26T02:31:04.138Z,20.52
2018-07-26T02:35:58.631Z,20.49
2018-07-26T02:40:53.014Z,20.45
2018-07-26T02:45:47.627Z,20.35
2018-07-26T02:50:41.861Z,20.33
2018-07-26T02:55:36.417Z,20.27
2018-07-26T03:00:31.034Z,20.20
2018-07-26T03:05:25.566Z,20.14
2018-07-26T03:10:20.179Z,20.14
2018-07-26T03:15:14.804Z,20.13
2018-07-26T03:20:09.404Z,20.11
2018-07-26T03:25:04.021Z,20.06
2018-07-26T03:29:58.609Z,20.03
2018-07-26T03:34:53.144Z,19.99
2018-07-26T03:39:47.684Z,19.95
2018-07-26T03:44:42.258Z,19.91
2018-07-26T03:49:36.857Z,19.85
2018-07-26T03:54:31.450Z,19.84
2018-07-26T03:59:26.585Z,19.79
2018-07-26T04:04:21.092Z,19.80
2018-07-26T04:09:16.294Z,19.82
2018-07-26T04:14:11.031Z,20.12
2018-07-26T04:19:05.720Z,20.69
2018-07-26T04:24:00.700Z,21.41
2018-07-26T04:28:55.274Z,22.06
2018-07-26T04:33:50.102Z,22.91
2018-07-26T04:38:44.629Z,23.68
2018-07-26T04:43:39.236Z,24.55
2018-07-26T04:48:34.425Z,25.37
2018-07-26T04:53:29.212Z,26.37
2018-07-26T04:58:23.810Z,27.10
2018-07-26T05:03:18.568Z,27.99
2018-07-26T05:08:13.204Z,28.65
2018-07-26T05:13:07.822Z,29.09
2018-07-26T05:18:02.388Z,29.93
2018-07-26T05:22:56.999Z,30.33
2018-07-26T05:27:51.925Z,30.82
2018-07-26T05:32:47.720Z,31.03
2018-07-26T05:37:42.637Z,31.32
2018-07-26T05:42:37.341Z,31.72
2018-07-26T05:47:31.996Z,31.72
2018-07-26T05:52:26.607Z,31.88
2018-07-26T05:57:33.798Z,32.01
2018-07-26T06:02:28.896Z,32.29
2018-07-26T06:07:23.421Z,32.71
2018-07-26T06:12:18.037Z,32.16
2018-07-26T06:17:12.899Z,31.71
2018-07-26T06:22:07.421Z,32.54
2018-07-26T06:27:01.850Z,32.71
2018-07-26T06:31:56.349Z,31.28
2018-07-26T06:36:50.778Z,30.86
2018-07-26T06:41:45.513Z,30.55
2018-07-26T06:46:39.682Z,30.30
2018-07-26T06:51:34.385Z,30.07
2018-07-26T06:56:28.906Z,28.87
2018-07-26T07:01:23.381Z,28.78
2018-07-26T07:06:17.805Z,28.93
2018-07-26T07:11:12.325Z,28.50
2018-07-26T07:16:06.815Z,29.22
2018-07-26T07:21:03.094Z,29.50
2018-07-26T07:25:58.538Z,29.97
2018-07-26T07:30:52.743Z,29.87
2018-07-26T07:36:02.199Z,29.82
2018-07-26T07:40:56.852Z,29.88
2018-07-26T07:45:51.427Z,29.49
2018-07-26T07:50:47.082Z,29.88
2018-07-26T07:55:41.893Z,29.20
2018-07-26T08:00:36.325Z,29.66
2018-07-26T08:05:30.784Z,29.71
2018-07-26T08:10:25.300Z,29.27
2018-07-26T08:15:19.909Z,29.67
2018-07-26T08:20:14.371Z,29.93
2018-07-26T08:25:09.721Z,30.14
2018-07-26T08:30:05.682Z,30.21
2018-07-26T08:35:00.221Z,29.95
2018-07-26T08:39:54.853Z,30.30
2018-07-26T08:44:50.653Z,30.60
2018-07-26T08:49:46.204Z,30.69
2018-07-26T08:54:41.330Z,30.73
2018-07-26T08:59:36.798Z,30.70
2018-07-26T09:04:37.228Z,30.34
2018-07-26T09:09:32.621Z,30.60
2018-07-26T09:14:27.114Z,30.90
2018-07-26T09:19:21.338Z,31.02
2018-07-26T09:24:22.216Z,30.76
2018-07-26T09:29:17.319Z,30.70
2018-07-26T09:34:11.961Z,30.93
2018-07-26T09:39:14.126Z,30.82
2018-07-26T09:44:09.745Z,30.92
2018-07-26T09:49:04.392Z,30.83
2018-07-26T09:53:58.867Z,30.65
2018-07-26T09:58:53.404Z,30.87
2018-07-26T10:03:47.884Z,31.43
2018-07-26T10:08:42.392Z,32.09
2018-07-26T10:13:36.877Z,32.33
2018-07-26T10:18:31.491Z,32.58
2018-07-26T10:23:25.967Z,32.74
2018-07-26T10:28:31.374Z,32.81
2018-07-26T10:33:26.089Z,32.72
2018-07-26T10:38:20.724Z,32.44
2018-07-26T10:43:15.554Z,32.83
2018-07-26T10:48:10.329Z,33.06
2018-07-26T10:53:05.204Z,32.96
2018-07-26T10:58:02.032Z,32.46
2018-07-26T11:03:08.297Z,31.79
2018-07-26T11:08:03.434Z,31.73
2018-07-26T11:12:58.663Z,32.62
2018-07-26T11:17:53.573Z,32.58
2018-07-26T11:22:48.444Z,32.23
2018-07-26T11:27:43.722Z,32.12
2018-07-26T11:32:38.453Z,31.77
2018-07-26T11:37:37.257Z,31.34
2018-07-26T11:42:39.800Z,31.50
2018-07-26T11:47:46.386Z,31.17
2018-07-26T11:52:41.571Z,31.10
2018-07-26T11:57:36.285Z,30.89
2018-07-26T12:24:04.562Z,31.49
2018-07-26T12:29:01.105Z,31.46
2018-07-26T12:33:58.272Z,31.46
2018-07-26T12:38:53.090Z,31.51
2018-07-26T12:43:47.893Z,31.35
2018-07-26T12:48:42.571Z,31.55
2018-07-26T13:09:52.190Z,31.61
2018-07-26T13:14:47.076Z,31.80
2018-07-26T13:19:41.805Z,32.08
2018-07-26T13:24:36.469Z,31.94
2018-07-26T13:29:31.141Z,31.75
2018-07-26T13:34:26.048Z,31.50
2018-07-26T13:39:21.626Z,31.52
2018-07-26T13:44:17.271Z,31.70
2018-07-26T13:49:12.097Z,31.61
2018-07-26T13:54:07.165Z,31.37
2018-07-26T13:59:01.939Z,31.34
2018-07-26T14:03:56.988Z,31.55
2018-07-26T14:08:51.601Z,31.55
2018-07-26T14:13:46.376Z,31.61
2018-07-26T14:18:41.364Z,31.80
2018-07-26T14:23:38.153Z,31.69
2018-07-26T14:28:32.925Z,30.80
2018-07-26T14:33:27.560Z,30.84
2018-07-26T14:38:22.160Z,31.17
2018-07-26T14:43:16.771Z,31.22
2018-07-26T14:48:11.430Z,31.13
2018-07-26T14:53:06.216Z,31.24
2018-07-26T14:58:01.050Z,31.20
2018-07-26T15:02:55.873Z,31.21
2018-07-26T15:07:50.734Z,31.23
2018-07-26T15:12:45.345Z,30.99
2018-07-26T15:17:40.391Z,31.11
2018-07-26T15:22:35.081Z,31.22
2018-07-26T15:27:30.073Z,30.82
2018-07-26T15:32:24.676Z,30.88
2018-07-26T15:37:19.280Z,31.00
2018-07-26T15:42:14.046Z,30.80
2018-07-26T15:47:08.774Z,31.10
2018-07-26T15:52:03.549Z,30.90
2018-07-26T15:56:58.257Z,31.31
2018-07-26T16:01:52.854Z,31.17
2018-07-26T16:06:47.731Z,31.05
2018-07-26T16:11:42.432Z,30.93
2018-07-26T16:16:37.030Z,30.83
2018-07-26T16:21:31.669Z,30.78
2018-07-26T16:26:26.320Z,31.15
2018-07-26T16:31:21.781Z,30.87
2018-07-26T16:36:16.441Z,30.66
2018-07-26T16:41:11.065Z,30.64
2018-07-26T16:46:05.780Z,30.81
2018-07-26T16:51:00.571Z,30.56
2018-07-26T16:55:55.129Z,30.48
2018-07-26T17:00:49.721Z,30.46
2018-07-26T17:05:44.394Z,30.45
2018-07-26T17:10:39.030Z,30.36
2018-07-26T17:15:33.664Z,30.26
2018-07-26T17:20:28.574Z,30.21
2018-07-26T17:25:26.155Z,30.15
2018-07-26T17:30:20.793Z,30.11
2018-07-26T17:35:15.295Z,29.98
2018-07-26T17:40:10.161Z,29.92
2018-07-26T17:45:07.280Z,29.79
2018-07-26T17:50:01.866Z,29.84
2018-07-26T17:54:56.744Z,29.61
2018-07-26T17:59:51.304Z,29.50
2018-07-26T18:04:45.856Z,29.32
2018-07-26T18:09:40.119Z,29.19
2018-07-26T18:14:34.709Z,29.10
2018-07-26T18:19:30.013Z,29.02
2018-07-26T18:24:24.590Z,28.98
2018-07-26T18:29:19.198Z,28.84
2018-07-26T18:34:13.753Z,28.69
2018-07-26T18:39:11.898Z,28.63
2018-07-26T18:44:06.765Z,28.44
2018-07-26T18:49:01.190Z,28.43
2018-07-26T18:53:55.955Z,28.18
2018-07-26T18:58:50.566Z,28.03
2018-07-26T19:03:45.189Z,27.87
2018-07-26T19:08:39.800Z,27.71
2018-07-26T19:13:34.622Z,27.52
2018-07-26T19:18:29.250Z,27.39
2018-07-26T19:23:23.807Z,27.27
2018-07-26T19:28:18.369Z,27.18
2018-07-26T19:33:12.647Z,27.04
2018-07-26T19:38:07.273Z,26.94
2018-07-26T19:43:01.830Z,26.85
2018-07-26T19:47:56.604Z,26.79
2018-07-26T19:52:51.104Z,26.67
2018-07-26T19:57:45.687Z,26.67
2018-07-26T20:02:40.444Z,26.68
2018-07-26T20:07:34.981Z,26.54
2018-07-26T20:12:29.657Z,26.46
2018-07-26T20:17:24.425Z,26.35
2018-07-26T20:22:19.118Z,26.24
2018-07-26T20:27:13.753Z,26.07
2018-07-26T20:32:08.306Z,26.03
2018-07-26T20:37:02.913Z,25.80
2018-07-26T20:41:57.569Z,25.78
2018-07-26T20:46:51.890Z,25.73
2018-07-26T20:51:46.476Z,25.54
2018-07-26T20:56:41.042Z,25.48
2018-07-26T21:01:35.637Z,25.36
2018-07-26T21:06:30.328Z,25.31
2018-07-26T21:11:24.670Z,25.37
2018-07-26T21:16:19.271Z,25.33
2018-07-26T21:21:13.839Z,25.27
2018-07-26T21:26:08.377Z,25.15
2018-07-26T21:31:02.960Z,25.03
2018-07-26T21:35:57.560Z,24.98
2018-07-26T21:40:52.130Z,24.96
2018-07-26T21:45:47.157Z,24.94
2018-07-26T21:50:41.734Z,24.85
2018-07-26T21:55:36.366Z,24.82
2018-07-26T22:00:39.693Z,24.70
2018-07-26T22:05:34.246Z,24.64
2018-07-26T22:10:28.901Z,24.64
2018-07-26T22:15:23.525Z,24.51
2018-07-26T22:20:18.126Z,24.37
2018-07-26T22:25:12.708Z,24.26
2018-07-26T22:30:07.374Z,24.20
2018-07-26T22:35:01.921Z,24.24
2018-07-26T22:39:56.561Z,24.08
2018-07-26T22:44:51.096Z,24.04
2018-07-26T22:49:45.644Z,24.17
2018-07-26T22:54:40.233Z,23.92
2018-07-26T22:59:34.463Z,23.74
2018-07-26T23:04:29.015Z,23.72
2018-07-26T23:09:23.568Z,23.54
2018-07-26T23:14:18.095Z,23.32
2018-07-26T23:19:12.641Z,23.14
2018-07-26T23:24:07.254Z,23.01
2018-07-26T23:29:01.819Z,22.97
2018-07-26T23:33:56.461Z,22.71
2018-07-26T23:38:50.990Z,22.89
2018-07-26T23:43:45.223Z,22.66
2018-07-26T23:48:39.783Z,22.52
2018-07-26T23:53:34.086Z,22.45
2018-07-26T23:58:28.322Z,22.29
